createdAt,value
2017-12-08T00:01:25.064Z,6.16
2017-12-08T00:03:53.313Z,6.11
2017-12-08T00:06:20.800Z,6.15
2017-12-08T00:08:49.908Z,6.15
2017-12-08T00:11:17.383Z,6.11
2017-12-08T00:13:44.936Z,6.17
2017-12-08T00:16:12.448Z,6.15
2017-12-08T00:18:39.929Z,6.18
2017-12-08T00:21:09.121Z,6.18
2017-12-08T00:23:36.615Z,6.16
2017-12-08T00:26:04.254Z,6.15
2017-12-08T00:28:32.869Z,6.17
2017-12-08T00:31:00.376Z,6.17
2017-12-08T00:33:27.877Z,6.22
2017-12-08T00:35:55.350Z,6.22
2017-12-08T00:38:23.101Z,6.24
2017-12-08T00:40:50.584Z,6.26
2017-12-08T00:43:18.058Z,6.25
2017-12-08T00:45:45.545Z,6.23
2017-12-08T00:48:13.039Z,6.24
2017-12-08T00:50:40.515Z,6.27
2017-12-08T00:53:08.007Z,6.24
2017-12-08T00:55:35.494Z,6.23
2017-12-08T00:58:02.992Z,6.20
2017-12-08T01:00:30.459Z,6.18
2017-12-08T01:02:57.941Z,6.18
2017-12-08T01:05:25.435Z,6.13
2017-12-08T01:07:52.894Z,6.11
2017-12-08T01:10:20.380Z,6.16
2017-12-08T01:12:48.793Z,6.12
2017-12-08T01:15:16.280Z,6.18
2017-12-08T01:17:43.752Z,6.24
2017-12-08T01:20:11.225Z,6.27
2017-12-08T01:22:38.730Z,6.24
2017-12-08T01:25:06.210Z,6.24
2017-12-08T01:27:33.670Z,6.21
2017-12-08T01:30:01.151Z,6.20
2017-12-08T01:32:28.689Z,6.18
2017-12-08T01:34:56.181Z,6.18
2017-12-08T01:37:23.748Z,6.19
2017-12-08T01:39:51.262Z,6.16
2017-12-08T01:42:18.735Z,6.20
2017-12-08T01:44:46.232Z,6.20
2017-12-08T01:47:13.704Z,6.19
2017-12-08T01:49:41.196Z,6.12
2017-12-08T01:52:08.671Z,6.15
2017-12-08T01:54:36.141Z,6.16
2017-12-08T01:57:03.790Z,6.20
2017-12-08T01:59:31.277Z,6.19
2017-12-08T02:01:58.779Z,6.17
2017-12-08T02:04:26.307Z,6.23
2017-12-08T02:06:53.795Z,6.19
2017-12-08T02:09:21.290Z,6.16
2017-12-08T02:11:48.758Z,6.20
2017-12-08T02:14:16.241Z,6.21
2017-12-08T02:16:43.755Z,6.15
2017-12-08T02:19:11.229Z,6.17
2017-12-08T02:21:38.940Z,6.11
2017-12-08T02:24:07.386Z,6.17
2017-12-08T02:26:34.883Z,6.09
2017-12-08T02:29:02.358Z,6.15
2017-12-08T02:31:29.838Z,6.16
2017-12-08T02:33:57.324Z,6.16
2017-12-08T02:36:24.817Z,6.21
2017-12-08T02:38:52.299Z,6.17
2017-12-08T02:41:19.780Z,6.22
2017-12-08T02:43:47.249Z,6.20
2017-12-08T02:46:14.734Z,6.16
2017-12-08T02:48:42.246Z,6.18
2017-12-08T02:51:09.721Z,6.21
2017-12-08T02:53:37.186Z,6.18
2017-12-08T02:56:05.941Z,6.21
2017-12-08T02:58:33.417Z,6.29
2017-12-08T03:01:00.890Z,6.24
2017-12-08T03:03:28.365Z,6.28
2017-12-08T03:05:55.850Z,6.28
2017-12-08T03:08:23.321Z,6.27
2017-12-08T03:10:50.842Z,6.28
2017-12-08T03:13:18.337Z,6.25
2017-12-08T03:15:45.811Z,6.25
2017-12-08T03:18:13.332Z,6.25
2017-12-08T03:20:40.852Z,6.22
2017-12-08T03:23:08.339Z,6.17
2017-12-08T03:25:35.833Z,6.17
2017-12-08T03:28:03.360Z,6.09
2017-12-08T03:30:30.871Z,6.07
2017-12-08T03:32:58.359Z,6.01
2017-12-08T03:35:26.611Z,6.03
2017-12-08T03:37:54.101Z,6.02
2017-12-08T03:40:21.608Z,6.04
2017-12-08T03:42:49.082Z,6.05
2017-12-08T03:45:16.573Z,6.04
2017-12-08T03:47:44.950Z,6.05
2017-12-08T03:50:12.429Z,6.06
2017-12-08T03:52:39.932Z,6.01
2017-12-08T03:55:07.409Z,5.99
2017-12-08T03:57:34.865Z,5.90
2017-12-08T04:00:02.365Z,5.83
2017-12-08T04:02:29.864Z,5.78
2017-12-08T04:04:57.360Z,5.75
2017-12-08T04:07:24.868Z,5.76
2017-12-08T04:09:52.333Z,5.75
2017-12-08T04:12:19.833Z,5.66
2017-12-08T04:14:47.320Z,5.67
2017-12-08T04:17:14.806Z,5.59
2017-12-08T04:19:42.313Z,5.54
2017-12-08T04:22:10.512Z,5.45
2017-12-08T04:24:37.992Z,5.50
2017-12-08T04:27:05.463Z,5.52
2017-12-08T04:29:32.976Z,5.51
2017-12-08T04:32:00.433Z,5.53
2017-12-08T04:34:28.482Z,5.56
2017-12-08T04:36:55.954Z,5.59
2017-12-08T04:39:23.433Z,5.53
2017-12-08T04:41:50.924Z,5.54
2017-12-08T04:44:18.396Z,5.58
2017-12-08T04:46:45.872Z,5.59
2017-12-08T04:49:13.392Z,5.56
2017-12-08T04:51:40.872Z,5.52
2017-12-08T04:54:08.335Z,5.51
2017-12-08T04:56:35.830Z,5.44
2017-12-08T04:59:04.231Z,5.46
2017-12-08T05:01:31.712Z,5.43
2017-12-08T05:03:59.186Z,5.42
2017-12-08T05:06:26.687Z,5.39
2017-12-08T05:08:54.188Z,5.41
2017-12-08T05:11:21.684Z,5.38
2017-12-08T05:13:49.388Z,5.47
2017-12-08T05:16:16.861Z,5.47
2017-12-08T05:18:44.333Z,5.50
2017-12-08T05:21:13.997Z,5.50
2017-12-08T05:23:41.560Z,5.50
2017-12-08T05:26:09.094Z,5.45
2017-12-08T05:28:36.561Z,5.44
2017-12-08T05:31:04.056Z,5.40
2017-12-08T05:33:31.585Z,5.42
2017-12-08T05:35:59.067Z,5.38
2017-12-08T05:38:26.573Z,5.43
2017-12-08T05:40:54.054Z,5.36
2017-12-08T05:43:21.573Z,5.39
2017-12-08T05:45:49.049Z,5.42
2017-12-08T05:48:16.548Z,5.40
2017-12-08T05:50:44.031Z,5.43
2017-12-08T05:53:11.518Z,5.32
2017-12-08T05:55:39.086Z,5.37
2017-12-08T05:58:06.566Z,5.43
2017-12-08T06:00:34.078Z,5.27
2017-12-08T06:03:01.584Z,5.25
2017-12-08T06:05:29.076Z,5.19
2017-12-08T06:07:56.541Z,5.17
2017-12-08T06:10:24.014Z,5.08
2017-12-08T06:12:51.496Z,5.11
2017-12-08T06:15:19.002Z,5.10
2017-12-08T06:17:46.526Z,5.08
2017-12-08T06:20:14.036Z,5.01
2017-12-08T06:22:41.528Z,5.01
2017-12-08T06:25:09.071Z,4.98
2017-12-08T06:27:36.584Z,5.02
2017-12-08T06:30:04.081Z,4.85
2017-12-08T06:32:31.570Z,4.92
2017-12-08T06:34:59.032Z,4.89
2017-12-08T06:37:26.513Z,4.89
2017-12-08T06:39:54.017Z,4.92
2017-12-08T06:42:21.512Z,4.92
2017-12-08T06:44:49.009Z,4.91
2017-12-08T06:47:16.486Z,4.85
2017-12-08T06:49:43.989Z,4.92
2017-12-08T06:52:11.466Z,4.95
2017-12-08T06:54:38.964Z,4.96
2017-12-08T06:57:06.442Z,4.99
2017-12-08T06:59:33.914Z,5.00
2017-12-08T07:02:02.019Z,5.01
2017-12-08T07:04:29.510Z,5.01
2017-12-08T07:06:56.990Z,4.99
2017-12-08T07:09:24.506Z,4.96
2017-12-08T07:11:51.980Z,4.93
2017-12-08T07:14:19.468Z,4.92
2017-12-08T07:16:46.971Z,4.94
2017-12-08T07:19:14.448Z,4.93
2017-12-08T07:21:41.935Z,3.98
2017-12-08T07:24:10.160Z,3.83
2017-12-08T07:26:37.689Z,3.80
2017-12-08T07:29:05.154Z,3.72
2017-12-08T07:31:32.651Z,3.82
2017-12-08T07:34:00.133Z,3.79
2017-12-08T07:36:27.622Z,3.76
2017-12-08T07:38:55.088Z,3.70
2017-12-08T07:41:22.614Z,3.76
2017-12-08T07:43:51.053Z,3.83
2017-12-08T07:46:19.685Z,3.61
2017-12-08T07:48:47.161Z,3.51
2017-12-08T07:51:14.638Z,3.52
2017-12-08T07:53:42.104Z,3.41
2017-12-08T07:56:09.594Z,3.42
2017-12-08T07:58:37.073Z,3.38
2017-12-08T08:01:04.522Z,3.37
2017-12-08T08:03:35.046Z,3.36
2017-12-08T08:06:05.422Z,3.35
2017-12-08T08:08:34.307Z,3.40
2017-12-08T08:11:01.809Z,3.46
2017-12-08T08:13:29.386Z,3.46
2017-12-08T08:15:57.652Z,3.46
2017-12-08T08:18:25.143Z,3.45
2017-12-08T08:20:53.981Z,3.44
2017-12-08T08:23:21.452Z,3.52
2017-12-08T08:25:49.671Z,3.56
2017-12-08T08:28:17.156Z,3.57
2017-12-08T08:30:44.615Z,3.74
2017-12-08T08:33:12.730Z,3.88
2017-12-08T08:35:40.201Z,3.94
2017-12-08T08:38:07.686Z,4.12
2017-12-08T08:40:35.189Z,4.39
2017-12-08T08:43:03.989Z,4.71
2017-12-08T08:45:31.807Z,4.95
2017-12-08T08:48:01.504Z,5.32
2017-12-08T08:50:30.655Z,5.87
2017-12-08T08:52:58.422Z,6.32
2017-12-08T08:55:25.884Z,6.35
2017-12-08T08:57:53.367Z,6.01
2017-12-08T09:00:21.976Z,5.82
2017-12-08T09:02:49.456Z,5.89
2017-12-08T09:05:16.965Z,5.71
2017-12-08T09:07:45.153Z,5.46
2017-12-08T09:10:12.620Z,5.37
2017-12-08T09:12:40.115Z,5.49
2017-12-08T09:15:07.601Z,5.90
2017-12-08T09:17:35.183Z,6.69
2017-12-08T09:20:02.682Z,6.89
2017-12-08T09:22:30.156Z,6.55
2017-12-08T09:24:57.654Z,6.70
2017-12-08T09:27:25.118Z,7.81
2017-12-08T09:29:52.585Z,7.95
2017-12-08T09:32:20.079Z,6.97
2017-12-08T09:34:47.573Z,6.86
2017-12-08T09:37:15.054Z,6.89
2017-12-08T09:39:42.522Z,6.52
2017-12-08T09:42:10.007Z,6.42
2017-12-08T09:44:37.461Z,6.58
2017-12-08T09:47:05.793Z,6.79
2017-12-08T09:49:33.731Z,6.57
2017-12-08T09:52:01.221Z,6.60
2017-12-08T09:54:28.709Z,6.22
2017-12-08T09:56:56.386Z,6.33
2017-12-08T09:59:23.872Z,5.87
2017-12-08T10:01:51.333Z,5.76
2017-12-08T10:04:18.812Z,5.58
2017-12-08T10:06:46.296Z,5.58
2017-12-08T10:09:13.798Z,5.66
2017-12-08T10:11:41.293Z,5.58
2017-12-08T10:14:08.777Z,5.62
2017-12-08T10:16:36.250Z,5.52
2017-12-08T10:19:04.857Z,5.40
2017-12-08T10:21:33.295Z,5.55
2017-12-08T10:24:00.827Z,5.54
2017-12-08T10:26:28.301Z,5.57
2017-12-08T10:28:55.799Z,5.60
2017-12-08T10:31:24.087Z,5.58
2017-12-08T10:33:51.595Z,5.55
2017-12-08T10:36:19.105Z,5.54
2017-12-08T10:38:46.586Z,5.63
2017-12-08T10:41:14.072Z,5.53
2017-12-08T10:43:41.538Z,5.39
2017-12-08T10:46:09.041Z,5.43
2017-12-08T10:48:36.584Z,5.50
2017-12-08T10:51:04.037Z,5.40
2017-12-08T10:53:31.529Z,5.47
2017-12-08T10:55:59.016Z,5.51
2017-12-08T10:58:27.373Z,5.44
2017-12-08T11:00:54.854Z,5.41
2017-12-08T11:03:22.325Z,5.49
2017-12-08T11:05:49.782Z,5.49
2017-12-08T11:08:17.992Z,5.55
2017-12-08T11:10:45.509Z,5.26
2017-12-08T11:13:12.971Z,5.14
2017-12-08T11:15:40.468Z,5.22
2017-12-08T11:18:07.969Z,5.29
2017-12-08T11:20:35.447Z,5.20
2017-12-08T11:23:02.934Z,5.19
2017-12-08T11:25:30.422Z,5.23
2017-12-08T11:27:57.924Z,5.12
2017-12-08T11:30:25.438Z,5.23
2017-12-08T11:32:52.922Z,5.17
2017-12-08T11:35:20.427Z,5.33
2017-12-08T11:37:47.883Z,5.43
2017-12-08T11:40:15.361Z,5.56
2017-12-08T11:42:42.844Z,5.69
2017-12-08T11:45:10.315Z,5.76
2017-12-08T11:47:37.813Z,5.57
2017-12-08T11:50:05.318Z,5.47
2017-12-08T11:52:32.826Z,5.47
2017-12-08T11:55:00.398Z,5.40
2017-12-08T11:57:27.872Z,5.38
2017-12-08T11:59:55.362Z,5.28
2017-12-08T12:02:22.896Z,5.32
2017-12-08T12:04:50.422Z,4.64
2017-12-08T12:07:17.947Z,4.69
2017-12-08T12:09:45.428Z,4.54
2017-12-08T12:12:12.917Z,4.50
2017-12-08T12:14:40.421Z,4.37
2017-12-08T12:17:07.902Z,4.23
2017-12-08T12:19:35.406Z,4.16
2017-12-08T12:22:02.880Z,3.82
2017-12-08T12:24:30.394Z,3.46
2017-12-08T12:26:57.904Z,3.50
2017-12-08T12:29:25.375Z,3.19
2017-12-08T12:31:52.880Z,3.27
2017-12-08T12:34:20.355Z,3.38
2017-12-08T12:36:47.823Z,3.38
2017-12-08T12:39:15.309Z,3.37
2017-12-08T12:41:42.804Z,3.48
2017-12-08T12:44:10.289Z,3.41
2017-12-08T12:46:37.789Z,3.44
2017-12-08T12:49:06.130Z,3.32
2017-12-08T12:51:33.756Z,3.39
2017-12-08T12:54:01.247Z,3.49
2017-12-08T12:56:28.730Z,3.25
2017-12-08T12:58:56.230Z,3.27
2017-12-08T13:01:24.853Z,3.30
2017-12-08T13:03:52.314Z,3.26
2017-12-08T13:06:19.813Z,3.11
2017-12-08T13:08:47.300Z,3.01
2017-12-08T13:11:14.777Z,3.13
2017-12-08T13:13:42.242Z,2.97
2017-12-08T13:16:10.245Z,3.00
2017-12-08T13:18:37.772Z,3.02
2017-12-08T13:21:05.271Z,3.00
2017-12-08T13:23:32.777Z,3.00
2017-12-08T13:26:00.242Z,3.05
2017-12-08T13:28:27.716Z,3.09
2017-12-08T13:30:55.185Z,3.13
2017-12-08T13:33:22.666Z,3.23
2017-12-08T13:35:50.156Z,3.18
2017-12-08T13:38:17.665Z,3.20
2017-12-08T13:40:45.134Z,3.24
2017-12-08T13:43:12.641Z,3.26
2017-12-08T13:45:40.121Z,3.28
2017-12-08T13:48:07.598Z,3.26
2017-12-08T13:50:35.078Z,3.26
2017-12-08T13:53:02.569Z,3.23
2017-12-08T13:55:41.857Z,3.28
2017-12-08T13:58:09.388Z,3.27
2017-12-08T14:00:36.850Z,3.28
2017-12-08T14:03:04.442Z,3.21
2017-12-08T14:05:31.945Z,3.28
2017-12-08T14:07:59.444Z,3.30
2017-12-08T14:10:27.122Z,3.29
2017-12-08T14:12:56.475Z,3.26
2017-12-08T14:15:24.107Z,3.26
2017-12-08T14:17:52.539Z,3.31
2017-12-08T14:20:20.003Z,3.32
2017-12-08T14:22:47.478Z,3.34
2017-12-08T14:25:14.998Z,3.34
2017-12-08T14:27:42.468Z,3.36
2017-12-08T14:30:09.978Z,3.37
2017-12-08T14:32:37.470Z,3.38
2017-12-08T14:35:04.986Z,3.34
2017-12-08T14:37:32.525Z,3.33
2017-12-08T14:40:01.929Z,3.38
2017-12-08T14:42:29.438Z,3.28
2017-12-08T14:44:56.910Z,3.32
2017-12-08T14:47:24.953Z,3.38
2017-12-08T14:49:52.492Z,3.30
2017-12-08T14:52:20.018Z,3.24
2017-12-08T14:54:47.514Z,3.28
2017-12-08T14:57:14.997Z,3.28
2017-12-08T14:59:42.490Z,3.23
2017-12-08T15:02:09.977Z,3.18
2017-12-08T15:04:37.497Z,3.05
2017-12-08T15:07:04.970Z,3.02
2017-12-08T15:09:32.525Z,2.95
2017-12-08T15:12:00.014Z,2.92
2017-12-08T15:14:27.565Z,2.77
2017-12-08T15:16:55.171Z,2.65
2017-12-08T15:19:22.673Z,2.64
2017-12-08T15:21:50.167Z,2.50
2017-12-08T15:24:17.674Z,2.58
2017-12-08T15:26:45.237Z,2.45
2017-12-08T15:29:12.730Z,2.26
2017-12-08T15:31:40.239Z,2.24
2017-12-08T15:34:07.734Z,2.21
2017-12-08T15:36:35.241Z,2.10
2017-12-08T15:39:02.776Z,2.17
2017-12-08T15:41:30.296Z,2.13
2017-12-08T15:43:57.763Z,2.17
2017-12-08T15:46:25.314Z,2.14
2017-12-08T15:48:52.816Z,2.11
2017-12-08T15:51:20.295Z,2.18
2017-12-08T15:53:47.816Z,2.27
2017-12-08T15:56:15.342Z,2.28
2017-12-08T15:58:42.828Z,2.26
2017-12-08T16:01:10.338Z,2.27
2017-12-08T16:03:37.833Z,2.18
2017-12-08T16:06:05.332Z,1.91
2017-12-08T16:08:32.828Z,1.78
2017-12-08T16:11:00.314Z,1.67
2017-12-08T16:13:27.805Z,1.61
2017-12-08T16:15:55.285Z,1.62
2017-12-08T16:18:22.788Z,1.59
2017-12-08T16:20:50.278Z,1.58
2017-12-08T16:23:17.772Z,1.64
2017-12-08T16:25:45.240Z,1.57
2017-12-08T16:28:12.885Z,1.61
2017-12-08T16:30:40.363Z,1.61
2017-12-08T16:33:07.889Z,1.71
2017-12-08T16:35:35.368Z,1.64
2017-12-08T16:38:02.878Z,1.67
2017-12-08T16:40:30.462Z,1.72
2017-12-08T16:42:57.972Z,1.72
2017-12-08T16:45:25.482Z,1.70
2017-12-08T16:47:52.972Z,1.73
2017-12-08T16:50:20.500Z,1.78
2017-12-08T16:52:48.006Z,1.83
2017-12-08T16:55:15.509Z,1.93
2017-12-08T16:57:43.024Z,1.97
2017-12-08T17:00:10.510Z,2.05
2017-12-08T17:02:38.055Z,2.02
2017-12-08T17:05:05.565Z,2.09
2017-12-08T17:07:33.045Z,2.09
2017-12-08T17:10:00.577Z,2.07
2017-12-08T17:12:28.113Z,2.07
2017-12-08T17:14:55.606Z,2.09
2017-12-08T17:17:23.074Z,2.05
2017-12-08T17:19:50.565Z,2.05
2017-12-08T17:22:18.042Z,2.07
2017-12-08T17:24:45.545Z,2.11
2017-12-08T17:27:13.040Z,2.08
2017-12-08T17:29:40.521Z,2.09
2017-12-08T17:32:07.998Z,2.08
2017-12-08T17:34:35.483Z,2.13
2017-12-08T17:37:03.005Z,2.11
2017-12-08T17:39:30.497Z,2.07
2017-12-08T17:41:58.773Z,2.07
2017-12-08T17:44:26.293Z,2.05
2017-12-08T17:46:53.792Z,2.00
2017-12-08T17:49:21.284Z,2.03
2017-12-08T17:51:48.788Z,2.02
2017-12-08T17:54:16.281Z,1.98
2017-12-08T17:56:43.767Z,1.97
2017-12-08T17:59:12.128Z,1.96
2017-12-08T18:01:39.608Z,1.95
2017-12-08T18:04:07.104Z,1.91
2017-12-08T18:06:34.585Z,1.94
2017-12-08T18:09:02.054Z,1.90
2017-12-08T18:11:29.540Z,1.87
2017-12-08T18:13:57.033Z,1.85
2017-12-08T18:16:24.530Z,1.89
2017-12-08T18:18:52.044Z,1.87
2017-12-08T18:21:19.579Z,1.82
2017-12-08T18:23:47.113Z,1.79
2017-12-08T18:26:14.642Z,1.87
2017-12-08T18:28:42.143Z,1.89
2017-12-08T18:31:09.679Z,1.82
2017-12-08T18:33:37.213Z,1.84
2017-12-08T18:36:04.694Z,1.83
2017-12-08T18:38:32.185Z,1.85
2017-12-08T18:40:59.668Z,1.84
2017-12-08T18:43:27.397Z,1.79
2017-12-08T18:48:21.663Z,1.79
2017-12-08T18:50:49.167Z,1.80
2017-12-08T18:53:17.487Z,1.78
2017-12-08T18:55:44.995Z,1.76
2017-12-08T18:58:12.461Z,1.78
2017-12-08T19:00:39.942Z,1.80
2017-12-08T19:03:07.429Z,1.84
2017-12-08T19:05:34.914Z,1.78
2017-12-08T19:08:02.376Z,1.79
2017-12-08T19:10:29.876Z,1.73
2017-12-08T19:12:57.394Z,1.75
2017-12-08T19:15:24.859Z,1.73
2017-12-08T19:17:52.444Z,1.71
2017-12-08T19:20:19.954Z,1.74
2017-12-08T19:22:47.424Z,1.72
2017-12-08T19:25:14.886Z,1.64
2017-12-08T19:27:42.394Z,1.61
2017-12-08T19:30:09.921Z,1.61
2017-12-08T19:32:37.444Z,1.55
2017-12-08T19:35:05.019Z,1.52
2017-12-08T19:37:32.516Z,1.46
2017-12-08T19:40:00.029Z,1.48
2017-12-08T19:42:27.545Z,1.38
2017-12-08T19:44:55.042Z,1.32
2017-12-08T19:47:22.534Z,1.37
2017-12-08T19:49:50.093Z,1.40
2017-12-08T19:52:17.628Z,1.36
2017-12-08T19:54:45.130Z,1.32
2017-12-08T19:57:12.599Z,1.34
2017-12-08T19:59:40.118Z,1.35
2017-12-08T20:02:07.577Z,1.29
2017-12-08T20:04:35.034Z,1.30
2017-12-08T20:07:02.579Z,1.28
2017-12-08T20:09:30.065Z,1.30
2017-12-08T20:11:57.542Z,1.32
2017-12-08T20:14:25.049Z,1.24
2017-12-08T20:16:52.561Z,1.21
2017-12-08T20:19:20.036Z,1.13
2017-12-08T20:21:47.541Z,1.21
2017-12-08T20:24:15.012Z,1.17
2017-12-08T20:26:43.927Z,1.21
2017-12-08T20:29:11.436Z,1.23
2017-12-08T20:31:38.938Z,1.18
2017-12-08T20:34:06.629Z,1.13
2017-12-08T20:36:34.177Z,1.10
2017-12-08T20:39:01.687Z,1.10
2017-12-08T20:41:29.175Z,1.06
2017-12-08T20:43:56.673Z,1.09
2017-12-08T20:46:24.182Z,1.06
2017-12-08T20:48:52.291Z,1.10
2017-12-08T20:51:19.809Z,1.08
2017-12-08T20:53:47.286Z,1.12
2017-12-08T20:56:14.809Z,1.09
2017-12-08T20:58:42.280Z,1.12
2017-12-08T21:01:09.754Z,1.07
2017-12-08T21:03:37.214Z,1.07
2017-12-08T21:06:04.733Z,1.11
2017-12-08T21:08:32.228Z,1.11
2017-12-08T21:10:59.729Z,1.10
2017-12-08T21:13:27.207Z,1.06
2017-12-08T21:15:54.711Z,1.04
2017-12-08T21:18:22.182Z,0.99
2017-12-08T21:20:49.721Z,1.09
2017-12-08T21:23:17.292Z,1.05
2017-12-08T21:25:44.737Z,1.15
2017-12-08T21:28:12.201Z,1.15
2017-12-08T21:30:39.672Z,1.10
2017-12-08T21:33:07.196Z,1.06
2017-12-08T21:35:34.665Z,1.07
2017-12-08T21:38:02.153Z,1.10
2017-12-08T21:40:29.642Z,1.11
2017-12-08T21:42:57.149Z,1.10
2017-12-08T21:45:24.674Z,1.13
2017-12-08T21:47:52.163Z,1.12
2017-12-08T21:50:19.643Z,1.13
2017-12-08T21:52:47.140Z,1.18
2017-12-08T21:55:14.632Z,1.17
2017-12-08T21:57:42.103Z,1.21
2017-12-08T22:00:09.566Z,1.13
2017-12-08T22:02:37.057Z,1.17
2017-12-08T22:05:04.578Z,1.20
2017-12-08T22:07:32.088Z,1.19
2017-12-08T22:09:59.718Z,1.29
2017-12-08T22:12:27.234Z,1.31
2017-12-08T22:14:54.710Z,1.32
2017-12-08T22:17:22.182Z,1.29
2017-12-08T22:19:49.651Z,1.33
2017-12-08T22:22:17.150Z,1.40
2017-12-08T22:24:44.649Z,1.49
2017-12-08T22:27:12.114Z,1.49
2017-12-08T22:29:39.604Z,1.58
2017-12-08T22:32:07.094Z,1.60
2017-12-08T22:34:34.593Z,1.65
2017-12-08T22:37:02.107Z,1.64
2017-12-08T22:39:29.631Z,1.70
2017-12-08T22:41:57.852Z,1.73
2017-12-08T22:44:25.327Z,1.78
2017-12-08T22:46:52.811Z,1.77
2017-12-08T22:49:20.299Z,1.79
2017-12-08T22:51:47.761Z,1.76
2017-12-08T22:54:15.813Z,1.76
2017-12-08T22:56:43.284Z,1.70
2017-12-08T22:59:10.777Z,1.62
2017-12-08T23:01:38.305Z,1.46
2017-12-08T23:04:05.790Z,1.31
2017-12-08T23:06:33.268Z,1.41
2017-12-08T23:09:00.776Z,1.32
2017-12-08T23:11:28.277Z,1.24
2017-12-08T23:13:55.784Z,1.23
2017-12-08T23:16:23.294Z,1.19
2017-12-08T23:18:50.821Z,1.20
2017-12-08T23:21:18.351Z,1.08
2017-12-08T23:23:45.823Z,1.18
2017-12-08T23:26:14.390Z,1.15
2017-12-08T23:28:41.915Z,1.13
2017-12-08T23:31:09.418Z,1.21
2017-12-08T23:33:36.888Z,1.21
2017-12-08T23:36:04.366Z,1.21
2017-12-08T23:38:31.826Z,1.25
2017-12-08T23:40:59.362Z,1.27
2017-12-08T23:43:26.896Z,1.22
2017-12-08T23:45:54.382Z,1.20
2017-12-08T23:48:21.900Z,1.23
2017-12-08T23:50:49.388Z,1.27
2017-12-08T23:53:16.877Z,1.26
2017-12-08T23:55:44.371Z,1.27
2017-12-08T23:58:11.839Z,1.24
